»·PEaware :: N623JB KLAX-KSNA

N623JB :: KLAX-KSNA

FLIGHT INFORMATION

Flight Status: Arrived
Operator: Privately registered:
United States
More flights under this callsign
Pilot: Jonathan B. (32222)
Aircraft: CIRRUS SR-22
(SR22)
More flights by this aircraft type
Origin: KLAX Los Angeles Intl
United States
Destination: KSNA John Wayne-Orange Co
United States
More flights between these airports :: More routes between these airports
Route: SLI8 SLI
File this flight plan on PilotEdge
Remarks:
Altitude:
(Current/Filed)
4,000ft
Speed:
(Current/Filed)
130kts
Departed: 24-Nov-20 09:18 AM
Arrived: 24-Nov-20 09:53 AM
Distance/Time
Traveled:
6795nm/0:35
Distance/Time
To Go:
Arrived

Flight Plot

Page will automatically refresh every two minutes.

Flight plan parsing failed; only flown route is shown


Map Options




Map Legend


Flown Route
Filed Route
Departure Airport
Arrival Airport
Navaid (VOR, NDB)
Fix

Horizontal Profiles

Position Reports

Time Latitude Longitude Heading Altitude Ground
Speed
24-Nov-20 08:55 33.934970 -118.386128 269 120ft 0kts
24-Nov-20 08:56 33.934969 -118.386128 269 120ft 0kts
24-Nov-20 08:57 33.934969 -118.386128 269 120ft 0kts
24-Nov-20 08:57 33.934969 -118.386128 269 120ft 0kts
24-Nov-20 08:59 33.934970 -118.386128 269 120ft 0kts
24-Nov-20 08:59 33.934970 -118.386128 269 120ft 0kts
24-Nov-20 09:00 33.934970 -118.386128 269 120ft 0kts
24-Nov-20 09:02 33.934970 -118.386128 269 120ft 0kts
24-Nov-20 09:02 33.934970 -118.386128 269 120ft 0kts
24-Nov-20 09:03 33.934970 -118.386128 269 120ft 0kts
24-Nov-20 09:04 33.934970 -118.386128 269 120ft 0kts
24-Nov-20 09:05 33.934970 -118.386128 269 120ft 0kts
24-Nov-20 09:06 33.934970 -118.386128 269 120ft 0kts
24-Nov-20 09:07 33.934970 -118.386126 269 120ft 0kts
24-Nov-20 09:08 33.934970 -118.385961 269 120ft 2kts
24-Nov-20 09:09 33.934897 -118.385802 169 120ft 4kts
24-Nov-20 09:10 33.934851 -118.385401 47 120ft 0kts
24-Nov-20 09:11 33.934851 -118.385401 47 120ft 0kts
24-Nov-20 09:12 33.934869 -118.385377 45 120ft 1kts
24-Nov-20 09:13 33.935914 -118.384806 64 120ft 7kts
24-Nov-20 09:14 33.936121 -118.383106 64 120ft 0kts
24-Nov-20 09:15 33.936489 -118.382757 352 120ft 5kts
24-Nov-20 09:16 33.937319 -118.383323 262 120ft 0kts
24-Nov-20 09:17 33.936004 -118.396067 262 310ft 104kts
24-Nov-20 09:18 33.932416 -118.431292 263 1858ft 106kts
24-Nov-20 09:19 33.913498 -118.458018 209 2918ft 139kts
24-Nov-20 09:20 33.878175 -118.484484 214 3460ft 141kts
24-Nov-20 09:21 33.846319 -118.511043 212 3971ft 148kts
24-Nov-20 09:22 33.822686 -118.480135 99 3999ft 158kts
24-Nov-20 09:23 33.814280 -118.427904 103 3997ft 160kts
24-Nov-20 09:24 33.807220 -118.375182 92 3998ft 160kts
24-Nov-20 09:25 33.802957 -118.322647 97 3999ft 157kts
24-Nov-20 09:26 33.798939 -118.270215 94 4001ft 157kts
24-Nov-20 09:27 33.795203 -118.217960 95 4001ft 156kts
24-Nov-20 09:28 33.791370 -118.165711 94 4001ft 157kts
24-Nov-20 09:29 33.787677 -118.115025 95 3999ft 156kts
24-Nov-20 09:30 33.783364 -118.062763 102 4003ft 158kts
24-Nov-20 09:31 33.797142 -118.022625 47 4001ft 156kts
24-Nov-20 09:32 33.814981 -117.975577 61 3999ft 160kts
24-Nov-20 09:33 33.835028 -117.928140 62 3999ft 160kts
24-Nov-20 09:34 33.852673 -117.883656 65 3996ft 136kts
24-Nov-20 09:35 33.868454 -117.844885 63 3999ft 125kts
24-Nov-20 09:36 33.883720 -117.807142 64 4003ft 126kts
24-Nov-20 09:37 33.899043 -117.769350 63 4001ft 125kts
24-Nov-20 09:38 33.914175 -117.731901 63 3997ft 124kts
24-Nov-20 09:39 33.938075 -117.703251 24 3814ft 129kts
24-Nov-20 09:40 33.968933 -117.699053 283 3520ft 122kts
24-Nov-20 09:41 33.943861 -117.709411 175 3501ft 109kts
24-Nov-20 09:42 33.915571 -117.716278 216 3501ft 107kts
24-Nov-20 09:43 33.888646 -117.733867 207 3413ft 112kts
24-Nov-20 09:44 33.861180 -117.751216 207 3397ft 111kts
24-Nov-20 09:45 33.832774 -117.769293 207 3056ft 127kts
24-Nov-20 09:46 33.803665 -117.787738 207 2804ft 112kts
24-Nov-20 09:47 33.775307 -117.805732 208 2094ft 107kts
24-Nov-20 09:48 33.751849 -117.820595 208 1617ft 92kts
24-Nov-20 09:49 33.729161 -117.834999 208 1112ft 94kts
24-Nov-20 09:50 33.707494 -117.848712 208 664ft 86kts
24-Nov-20 09:51 33.686412 -117.862080 208 204ft 79kts
24-Nov-20 09:52 33.676049 -117.869839 335 55ft 6kts
24-Nov-20 09:53 33.677306 -117.869744 231 51ft 10kts
24-Nov-20 09:54 33.676182 -117.870969 184 52ft 1kts
24-Nov-20 09:55 33.676156 -117.870971 183 52ft 0kts
24-Nov-20 09:56 0.000408 0.013975 0 3ft 0kts
24-Nov-20 09:57 0.000408 0.013975 0 3ft 0kts
24-Nov-20 09:58 0.000408 0.013975 0 3ft 0kts
24-Nov-20 09:59 0.000408 0.013975 0 3ft 0kts
24-Nov-20 10:00 0.000408 0.013975 0 3ft 0kts
24-Nov-20 10:01 0.000408 0.013975 0 3ft 0kts
24-Nov-20 10:02 0.000408 0.013975 0 3ft 0kts
24-Nov-20 10:03 0.000408 0.013975 0 3ft 0kts
24-Nov-20 10:04 0.000408 0.013975 0 3ft 0kts
24-Nov-20 10:05 0.000408 0.013975 0 3ft 0kts
24-Nov-20 10:06 0.000408 0.013975 0 3ft 0kts
24-Nov-20 10:07 0.000408 0.013975 0 3ft 0kts

Navigation Log

Ident Type
Flight plan parsing failed, navigation log unavailable